Time;durP1;ratioP1;P1;durP2;ratioP2;P2;SDS_P1;SDS_P2;PMS_P1;PMS_P2;Temp;Humidity;BMP_temperature;BMP_pressure;BME280_temperature;BME280_humidity;BME280_pressure;Samples;Min_cycle;Max_cycle;Signal;HPM_P1;HPM_P2
2021/08/20 00:02:39;;;;;;;5.70;4.73;;;;;;;16.21;65.05;100080.52;154237;1100;103209;-82
2021/08/20 00:05:42;;;;;;;6.55;5.00;;;;;;;16.11;64.92;100083.55;154921;1100;103107;-80
2021/08/20 00:08:45;;;;;;;7.10;5.37;;;;;;;16.01;64.92;100080.33;154736;1100;103827;-80
2021/08/20 00:11:47;;;;;;;6.43;5.20;;;;;;;15.94;65.09;100080.28;154283;1100;103112;-80
2021/08/20 00:14:50;;;;;;;7.88;6.05;;;;;;;15.85;64.85;100076.05;154062;1093;103129;-84
2021/08/20 00:17:53;;;;;;;6.40;5.50;;;;;;;15.79;65.59;100071.44;154170;1093;103154;-82
2021/08/20 00:20:56;;;;;;;6.17;5.57;;;;;;;15.73;65.38;100074.87;154071;1093;103232;-82
2021/08/20 00:23:58;;;;;;;6.30;5.07;;;;;;;15.67;65.27;100084.53;154137;1093;103129;-83
2021/08/20 00:27:01;;;;;;;8.20;5.05;;;;;;;15.62;65.38;100085.09;154094;1100;103119;-81
2021/08/20 00:30:08;;;;;;;7.47;5.27;;;;;;;15.60;65.82;100071.00;154059;1100;103329;-81
2021/08/20 00:33:10;;;;;;;8.30;5.83;;;;;;;15.62;65.48;100071.64;154152;1093;103122;-84
2021/08/20 00:36:14;;;;;;;6.93;5.93;;;;;;;15.59;66.02;100076.56;154081;1100;103301;-84
2021/08/20 00:39:17;;;;;;;6.30;5.45;;;;;;;15.58;65.91;100078.42;154372;1100;103124;-81
2021/08/20 00:42:20;;;;;;;7.68;5.53;;;;;;;15.53;65.68;100072.80;154365;1100;103192;-80
2021/08/20 00:45:23;;;;;;;7.27;5.33;;;;;;;15.48;65.57;100081.42;154121;1100;103136;-80
2021/08/20 00:48:27;;;;;;;6.50;4.97;;;;;;;15.41;65.95;100069.75;153987;1100;103139;-81
2021/08/20 00:51:33;;;;;;;5.77;5.17;;;;;;;15.33;65.96;100077.94;154009;1100;103319;-81
2021/08/20 00:54:36;;;;;;;5.20;4.30;;;;;;;15.26;65.97;100085.93;154009;1093;103142;-79
2021/08/20 00:57:40;;;;;;;5.28;4.15;;;;;;;15.24;65.85;100079.91;153941;1093;103121;-81
2021/08/20 01:00:43;;;;;;;5.77;4.90;;;;;;;15.24;65.74;100090.66;154080;1100;103198;-82
2021/08/20 01:03:46;;;;;;;5.18;4.68;;;;;;;15.24;66.04;100090.66;154094;1093;103183;-81
2021/08/20 01:06:52;;;;;;;6.30;5.50;;;;;;;15.22;65.70;100078.41;153956;1093;103136;-80
2021/08/20 01:09:55;;;;;;;7.48;5.20;;;;;;;15.15;66.19;100080.20;154017;1100;103240;-78
2021/08/20 01:12:58;;;;;;;6.60;5.27;;;;;;;15.09;65.87;100084.47;153953;1101;103329;-79
2021/08/20 01:16:01;;;;;;;7.20;5.33;;;;;;;15.04;66.24;100089.56;153935;1093;103565;-79
2021/08/20 01:19:04;;;;;;;6.33;5.23;;;;;;;15.00;65.91;100085.58;154235;1101;103136;-79
2021/08/20 01:22:09;;;;;;;6.55;5.55;;;;;;;14.92;65.91;100090.02;154745;1093;103118;-81
2021/08/20 01:25:15;;;;;;;5.90;5.30;;;;;;;14.87;66.22;100094.28;154230;1093;103140;-77
2021/08/20 01:28:19;;;;;;;6.65;4.20;;;;;;;14.80;66.27;100091.52;153991;1093;103142;-77
2021/08/20 01:31:22;;;;;;;6.53;4.23;;;;;;;14.80;66.23;100093.34;153992;1100;103106;-77
2021/08/20 01:34:25;;;;;;;6.37;5.00;;;;;;;14.81;66.06;100097.71;153993;1100;103202;-79
2021/08/20 01:37:29;;;;;;;5.33;4.75;;;;;;;14.80;66.09;100093.34;153975;1093;103263;-81
2021/08/20 01:40:34;;;;;;;5.70;5.10;;;;;;;14.78;65.95;100096.24;154135;1093;103131;-82
2021/08/20 01:43:37;;;;;;;5.83;5.10;;;;;;;14.76;66.22;100097.42;154100;1100;103278;-82
2021/08/20 01:46:42;;;;;;;7.75;5.20;;;;;;;14.72;66.09;100094.27;154075;1100;103220;-82
2021/08/20 01:49:45;;;;;;;5.40;4.90;;;;;;;14.69;66.09;100091.97;154076;1100;103182;-82
2021/08/20 01:52:48;;;;;;;5.13;4.63;;;;;;;14.65;66.00;100090.67;154505;1093;103249;-82
2021/08/20 01:55:51;;;;;;;6.53;5.27;;;;;;;14.61;66.32;100084.00;154111;1093;103617;-80
2021/08/20 01:58:54;;;;;;;6.60;5.33;;;;;;;14.53;66.23;100087.58;154063;1093;103187;-83
2021/08/20 02:01:57;;;;;;;5.60;4.37;;;;;;;14.46;66.21;100092.82;154048;1093;103165;-79
2021/08/20 02:05:01;;;;;;;5.60;4.50;;;;;;;14.44;66.32;100097.55;154005;1093;103195;-80
2021/08/20 02:08:08;;;;;;;6.70;5.00;;;;;;;14.44;66.60;100088.66;154061;1093;103157;-79
2021/08/20 02:11:13;;;;;;;5.78;4.83;;;;;;;14.43;66.55;100095.86;153996;1101;103240;-77
2021/08/20 02:14:21;;;;;;;5.27;4.77;;;;;;;14.43;66.26;100095.86;153916;1100;103113;-78
2021/08/20 02:17:24;;;;;;;5.45;4.90;;;;;;;14.42;66.36;100098.75;154052;1100;103191;-77
2021/08/20 02:20:28;;;;;;;5.53;5.03;;;;;;;14.39;66.24;100091.88;154082;1101;103192;-76
2021/08/20 02:23:32;;;;;;;6.13;5.53;;;;;;;14.34;66.56;100089.75;154094;1093;103205;-77
2021/08/20 02:26:37;;;;;;;7.25;5.70;;;;;;;14.29;66.34;100091.30;154064;1093;103104;-77
2021/08/20 02:29:41;;;;;;;5.48;4.85;;;;;;;14.23;66.44;100087.50;153996;1093;103136;-77
2021/08/20 02:32:44;;;;;;;6.03;5.30;;;;;;;14.18;66.64;100089.88;153976;1100;103154;-77
2021/08/20 02:35:47;;;;;;;5.13;4.07;;;;;;;14.15;66.60;100087.58;153966;1093;103198;-77
2021/08/20 02:38:49;;;;;;;5.23;4.20;;;;;;;14.12;66.74;100083.38;153958;1101;103198;-76
2021/08/20 02:41:52;;;;;;;5.60;4.77;;;;;;;14.13;66.82;100082.38;153973;1100;103115;-78
2021/08/20 02:44:56;;;;;;;5.65;4.80;;;;;;;14.16;66.58;100080.34;153964;1100;103167;-78
2021/08/20 02:48:01;;;;;;;6.10;5.23;;;;;;;14.17;66.83;100080.17;153941;1100;103142;-77
2021/08/20 02:51:07;;;;;;;6.47;5.43;;;;;;;14.14;66.89;100086.75;154059;1093;103121;-78
2021/08/20 02:54:11;;;;;;;6.08;5.45;;;;;;;14.11;66.67;100081.73;154091;1093;103257;-77
2021/08/20 02:57:14;;;;;;;7.20;5.83;;;;;;;14.11;66.97;100089.78;154050;1093;103207;-77
2021/08/20 03:00:21;;;;;;;6.03;5.23;;;;;;;14.10;66.74;100090.78;153940;1093;103182;-74
2021/08/20 03:03:24;;;;;;;6.60;5.80;;;;;;;14.08;66.83;100090.13;154000;1100;103144;-76
2021/08/20 03:06:29;;;;;;;6.07;4.97;;;;;;;14.03;67.01;100092.53;154013;1093;103467;-75
2021/08/20 03:09:32;;;;;;;6.05;4.73;;;;;;;14.04;66.98;100094.19;154110;1093;103320;-74
2021/08/20 03:12:37;;;;;;;5.60;4.97;;;;;;;14.09;67.07;100090.98;154378;1093;103553;-78
2021/08/20 03:15:43;;;;;;;6.40;5.50;;;;;;;14.09;67.10;100097.17;154522;1100;103518;-74
2021/08/20 03:18:46;;;;;;;7.17;5.37;;;;;;;14.10;67.08;100093.45;154173;1101;103214;-76
2021/08/20 03:21:50;;;;;;;6.60;5.85;;;;;;;14.08;67.23;100090.13;154404;1093;103126;-77
2021/08/20 03:24:54;;;;;;;7.70;5.73;;;;;;;14.07;67.18;100091.16;154874;1093;103140;-77
2021/08/20 03:28:01;;;;;;;8.57;6.80;;;;;;;14.04;67.23;100099.55;154988;1100;103113;-77
2021/08/20 03:31:15;;;;;;;8.83;6.23;;;;;;;14.02;67.39;100090.85;155036;1100;103105;-77
2021/08/20 03:34:18;;;;;;;7.30;6.23;;;;;;;14.02;67.35;100100.75;154408;1093;103135;-76
2021/08/20 03:37:23;;;;;;;6.67;5.90;;;;;;;14.01;67.42;100101.75;154261;1093;103142;-76
2021/08/20 03:40:27;;;;;;;5.90;4.67;;;;;;;14.01;67.50;100099.93;154392;1093;104817;-76
2021/08/20 03:43:34;;;;;;;5.98;5.25;;;;;;;14.05;67.38;100095.88;154181;1093;103099;-76
2021/08/20 03:46:47;;;;;;;6.15;5.30;;;;;;;14.08;67.64;100087.44;154160;1093;103128;-77
2021/08/20 03:49:51;;;;;;;6.90;5.57;;;;;;;14.10;67.43;100087.27;154672;1093;103194;-77
2021/08/20 03:52:53;;;;;;;6.20;5.60;;;;;;;14.11;67.40;100084.41;154242;1100;103122;-77
2021/08/20 03:55:56;;;;;;;8.50;5.87;;;;;;;14.13;67.34;100090.43;154302;1093;103233;-77
2021/08/20 03:59:18;;;;;;;7.03;5.80;;;;;;;14.14;67.47;100086.75;154495;1100;103550;-77
2021/08/20 04:02:21;;;;;;;8.07;5.90;;;;;;;14.14;67.45;100092.11;154252;1093;103201;-77
2021/08/20 04:05:25;;;;;;;11.80;6.58;;;;;;;14.13;67.71;100087.75;154355;1100;103586;-78
2021/08/20 04:08:40;;;;;;;7.10;6.17;;;;;;;14.15;67.85;100087.58;154428;1093;103125;-77
2021/08/20 04:12:12;;;;;;;7.38;5.83;;;;;;;14.21;67.76;100078.80;154081;1100;103359;-77
2021/08/20 04:15:25;;;;;;;6.33;5.73;;;;;;;14.33;67.88;100084.55;154119;1093;103096;-76
2021/08/20 04:18:29;;;;;;;8.63;6.33;;;;;;;14.43;67.85;100081.61;154194;1093;103329;-77
2021/08/20 04:21:32;;;;;;;11.05;6.13;;;;;;;14.57;67.99;100088.91;154183;1093;103144;-77
2021/08/20 04:24:36;;;;;;;9.13;6.33;;;;;;;14.73;67.91;100095.95;154528;1093;103466;-77
2021/08/20 04:27:58;;;;;;;13.83;6.83;;;;;;;14.89;67.92;100087.70;154395;1093;103121;-77
2021/08/20 04:31:08;;;;;;;8.70;7.63;;;;;;;15.05;68.11;100081.32;154883;1100;103129;-76
2021/08/20 04:34:37;;;;;;;7.40;6.20;;;;;;;15.24;68.63;100074.53;154092;1101;103214;-75
2021/08/20 04:38:03;;;;;;;8.43;6.83;;;;;;;15.55;68.75;100075.28;153944;1093;103101;-75
2021/08/20 04:41:28;;;;;;;9.60;7.20;;;;;;;15.88;68.86;100081.06;154141;1100;103187;-77
2021/08/20 04:44:50;;;;;;;12.30;8.93;;;;;;;16.19;68.77;100085.27;154156;1093;103189;-77
2021/08/20 04:48:12;;;;;;;9.40;8.30;;;;;;;16.41;68.64;100084.19;154174;1100;103192;-77
2021/08/20 04:51:28;;;;;;;10.75;9.03;;;;;;;16.50;68.58;100090.28;154210;1100;103492;-77
2021/08/20 04:54:50;;;;;;;;;;;;;;;16.56;68.78;100089.48;154219;1093;103096;-77
2021/08/20 04:57:56;;;;;;;12.43;10.03;;;;;;;16.56;68.86;100084.10;154209;1100;103198;-77
2021/08/20 05:00:59;;;;;;;10.90;8.30;;;;;;;16.61;68.92;100083.50;154124;1093;103174;-76
2021/08/20 05:04:03;;;;;;;9.40;7.53;;;;;;;16.68;69.18;100087.08;154231;1093;103127;-77
2021/08/20 05:07:06;;;;;;;9.30;7.60;;;;;;;16.75;69.41;100081.75;154738;1100;103495;-77
2021/08/20 05:10:12;;;;;;;9.58;8.10;;;;;;;16.79;69.11;100083.84;154507;1100;103192;-77
2021/08/20 05:13:15;;;;;;;9.80;8.63;;;;;;;16.85;69.13;100093.03;154091;1101;103192;-78
2021/08/20 05:16:18;;;;;;;10.50;8.30;;;;;;;16.89;68.97;100099.68;154143;1100;103347;-76
2021/08/20 05:19:21;;;;;;;13.23;8.40;;;;;;;16.92;69.48;100103.83;154316;1101;103597;-76
2021/08/20 05:22:24;;;;;;;9.67;8.10;;;;;;;16.94;69.09;100104.49;154271;1100;103195;-76
2021/08/20 05:25:32;;;;;;;9.20;7.60;;;;;;;16.98;69.44;100103.06;154261;1100;103101;-76
2021/08/20 05:28:34;;;;;;;11.85;8.70;;;;;;;17.02;69.44;100109.72;154567;1100;103150;-76
2021/08/20 05:31:37;;;;;;;9.87;8.47;;;;;;;17.07;69.47;100107.23;154536;1100;103098;-77
2021/08/20 05:34:40;;;;;;;11.05;9.00;;;;;;;17.11;69.33;100108.53;154416;1093;103576;-74
2021/08/20 05:37:44;;;;;;;11.00;8.57;;;;;;;17.13;69.26;100111.86;154143;1100;103143;-76
2021/08/20 05:40:47;;;;;;;10.00;8.37;;;;;;;17.14;69.47;100121.59;154381;1093;103115;-76
2021/08/20 05:43:49;;;;;;;10.10;7.93;;;;;;;17.15;69.53;100117.88;154260;1100;103121;-77
2021/08/20 05:46:52;;;;;;;8.10;7.30;;;;;;;17.18;69.49;100119.33;155080;1098;103187;-78
2021/08/20 05:49:55;;;;;;;8.88;7.98;;;;;;;17.23;69.67;100124.97;155120;1098;103128;-75
2021/08/20 05:52:58;;;;;;;8.93;7.90;;;;;;;17.25;69.42;100129.12;155097;1098;103187;-75
2021/08/20 05:56:00;;;;;;;9.30;8.07;;;;;;;17.29;69.60;100131.42;154950;1093;103142;-76
2021/08/20 05:59:03;;;;;;;9.40;8.20;;;;;;;17.30;69.34;100135.77;154950;1098;103145;-78
2021/08/20 06:02:06;;;;;;;9.40;7.95;;;;;;;17.32;69.71;100136.41;154901;1093;103132;-78
2021/08/20 06:05:10;;;;;;;10.00;8.83;;;;;;;17.33;69.57;100138.91;154534;1099;103820;-77
2021/08/20 06:08:13;;;;;;;9.27;7.33;;;;;;;17.38;70.06;100146.38;154484;1098;103212;-79
2021/08/20 06:11:16;;;;;;;9.70;7.77;;;;;;;17.44;69.66;100145.61;154672;1093;103129;-77
2021/08/20 06:14:19;;;;;;;9.90;8.33;;;;;;;17.48;69.83;100146.05;154540;1098;103224;-76
2021/08/20 06:17:21;;;;;;;10.67;8.07;;;;;;;17.52;69.80;100141.91;154626;1098;103195;-78
2021/08/20 06:20:24;;;;;;;9.97;8.30;;;;;;;17.57;69.88;100145.66;154565;1098;103187;-78
2021/08/20 06:23:27;;;;;;;9.80;8.35;;;;;;;17.62;69.97;100136.95;154585;1098;104618;-79
2021/08/20 06:26:30;;;;;;;9.40;7.23;;;;;;;17.63;69.82;100125.97;154553;1098;103189;-78
2021/08/20 06:29:33;;;;;;;8.13;6.87;;;;;;;17.69;70.06;100135.12;154626;1093;103133;-77
2021/08/20 06:32:36;;;;;;;10.63;7.10;;;;;;;17.75;69.94;100131.60;154540;1098;103155;-77
2021/08/20 06:35:39;;;;;;;8.60;7.33;;;;;;;17.83;69.93;100138.68;154569;1098;103122;-76
2021/08/20 06:38:42;;;;;;;8.53;7.17;;;;;;;17.88;69.98;100144.34;154554;1098;103308;-77
2021/08/20 06:41:45;;;;;;;10.03;8.10;;;;;;;17.94;69.84;100146.22;154581;1098;103211;-77
2021/08/20 06:44:47;;;;;;;8.68;7.40;;;;;;;17.94;69.83;100138.13;154178;1098;103195;-78
2021/08/20 06:47:50;;;;;;;10.13;6.77;;;;;;;17.95;69.80;100141.64;154528;1098;103241;-77
2021/08/20 06:50:53;;;;;;;8.10;6.70;;;;;;;18.01;70.05;100146.22;154610;1098;103211;-77
2021/08/20 06:53:56;;;;;;;8.95;7.05;;;;;;;18.08;70.00;100143.55;154641;1098;103241;-78
2021/08/20 06:56:58;;;;;;;7.95;6.95;;;;;;;18.14;69.88;100142.72;154582;1093;103308;-77
2021/08/20 07:00:01;;;;;;;10.07;7.27;;;;;;;18.19;70.05;100145.66;154568;1098;103125;-77
2021/08/20 07:03:04;;;;;;;8.50;6.85;;;;;;;18.25;69.91;100147.52;154576;1093;103249;-78
2021/08/20 07:06:07;;;;;;;7.97;6.73;;;;;;;18.28;69.99;100152.49;154535;1093;103150;-77
2021/08/20 07:09:10;;;;;;;9.17;6.70;;;;;;;18.31;70.01;100153.97;154593;1098;103209;-78
2021/08/20 07:12:12;;;;;;;9.67;6.30;;;;;;;18.37;69.96;100159.36;154312;1093;103225;-76
2021/08/20 07:15:15;;;;;;;8.77;6.30;;;;;;;18.43;69.88;100158.53;154148;1093;103129;-78
2021/08/20 07:18:18;;;;;;;7.97;7.10;;;;;;;18.52;69.81;100163.75;154397;1098;103192;-77
2021/08/20 07:21:21;;;;;;;9.37;7.00;;;;;;;18.61;70.01;100155.23;154277;1098;103192;-77
2021/08/20 07:24:23;;;;;;;8.07;6.57;;;;;;;18.70;69.91;100150.43;154375;1093;103126;-77
2021/08/20 07:27:26;;;;;;;9.13;6.40;;;;;;;18.79;69.92;100153.77;154386;1098;103184;-77
2021/08/20 07:30:29;;;;;;;8.40;6.50;;;;;;;18.87;69.85;100150.05;154598;1098;103222;-78
2021/08/20 07:33:32;;;;;;;6.17;5.50;;;;;;;18.99;69.96;100159.16;154640;1098;103189;-78
2021/08/20 07:36:35;;;;;;;8.43;6.13;;;;;;;19.13;69.56;100154.55;154491;1093;103110;-78
2021/08/20 07:39:38;;;;;;;7.47;6.20;;;;;;;19.26;69.77;100151.81;153975;1093;103150;-78
2021/08/20 07:42:41;;;;;;;7.90;6.73;;;;;;;19.37;69.63;100153.04;153991;1100;103192;-78
2021/08/20 07:45:44;;;;;;;8.03;6.83;;;;;;;19.48;69.55;100157.79;153955;1093;103213;-77
2021/08/20 07:48:47;;;;;;;8.60;6.80;;;;;;;19.58;69.57;100147.33;154016;1093;103110;-78
2021/08/20 07:51:49;;;;;;;8.63;7.10;;;;;;;19.71;69.34;100156.45;153957;1100;103129;-77
2021/08/20 07:54:52;;;;;;;7.83;6.37;;;;;;;19.87;69.56;100152.44;154013;1100;103323;-78
2021/08/20 07:57:56;;;;;;;8.97;6.37;;;;;;;20.05;69.38;100159.83;153982;1100;103709;-77
2021/08/20 08:00:59;;;;;;;8.98;6.60;;;;;;;20.23;69.24;100162.64;153973;1100;103245;-78
2021/08/20 08:04:01;;;;;;;9.47;6.70;;;;;;;20.41;68.99;100153.75;153967;1093;103374;-78
2021/08/20 08:07:05;;;;;;;8.80;7.10;;;;;;;20.56;68.93;100148.83;153988;1093;103198;-78
2021/08/20 08:10:09;;;;;;;8.20;6.93;;;;;;;20.73;68.70;100142.89;154012;1100;103144;-78
2021/08/20 08:13:12;;;;;;;7.28;6.48;;;;;;;20.87;68.49;100149.83;153948;1100;103132;-78
2021/08/20 08:16:15;;;;;;;9.70;7.23;;;;;;;21.01;68.69;100153.23;154040;1093;103186;-78
2021/08/20 08:19:19;;;;;;;8.50;6.90;;;;;;;21.18;68.36;100158.91;153948;1101;103255;-78
2021/08/20 08:22:22;;;;;;;8.80;7.03;;;;;;;21.32;68.15;100151.45;154031;1100;103464;-78
2021/08/20 08:25:27;;;;;;;9.13;7.00;;;;;;;21.45;67.98;100162.18;153967;1100;103183;-77
2021/08/20 08:28:30;;;;;;;7.05;6.35;;;;;;;21.59;67.79;100162.84;153945;1100;103196;-78
2021/08/20 08:31:33;;;;;;;7.73;6.17;;;;;;;21.71;67.86;100163.75;153999;1093;103192;-78
2021/08/20 08:34:35;;;;;;;8.60;6.33;;;;;;;21.90;67.54;100161.83;153976;1100;103235;-78
2021/08/20 08:37:38;;;;;;;8.43;6.40;;;;;;;22.04;67.29;100159.75;153994;1100;103190;-78
2021/08/20 08:40:44;;;;;;;8.10;6.50;;;;;;;22.21;67.08;100170.80;153963;1093;103144;-78
2021/08/20 08:43:47;;;;;;;7.48;6.60;;;;;;;22.33;66.88;100152.64;153972;1100;103125;-78
2021/08/20 08:46:51;;;;;;;6.93;6.17;;;;;;;22.44;66.60;100166.48;153976;1093;103135;-77
2021/08/20 08:49:56;;;;;;;8.83;6.17;;;;;;;22.55;66.53;100165.69;154001;1100;103291;-77
2021/08/20 08:52:59;;;;;;;8.47;6.07;;;;;;;22.60;66.36;100173.98;154003;1094;103142;-76
2021/08/20 08:56:02;;;;;;;7.70;5.70;;;;;;;22.64;66.07;100174.34;153998;1093;103139;-77
2021/08/20 08:59:05;;;;;;;7.97;5.33;;;;;;;22.66;66.33;100170.31;153959;1101;103189;-77
2021/08/20 09:02:21;;;;;;;6.00;5.13;;;;;;;22.66;65.84;100169.48;153987;1093;103170;-78
2021/08/20 09:05:24;;;;;;;6.83;5.40;;;;;;;22.65;65.78;100165.09;153977;1100;103262;-78
2021/08/20 09:08:27;;;;;;;8.07;5.90;;;;;;;22.60;64.20;100168.54;153951;1093;103129;-78
2021/08/20 09:11:30;;;;;;;6.73;5.43;;;;;;;22.32;65.32;100172.72;154003;1101;103198;-79
2021/08/20 09:14:35;;;;;;;7.77;6.20;;;;;;;22.23;65.68;100174.11;154448;1100;103582;-80
2021/08/20 09:17:37;;;;;;;7.47;5.47;;;;;;;22.20;65.64;100169.13;154242;1100;103197;-80
2021/08/20 09:20:40;;;;;;;6.37;5.73;;;;;;;22.25;65.30;100161.14;154286;1100;103346;-82
2021/08/20 09:23:43;;;;;;;6.57;5.57;;;;;;;22.31;65.13;100168.36;154123;1100;103214;-81
2021/08/20 09:26:46;;;;;;;8.75;5.88;;;;;;;22.42;64.86;100172.19;154120;1100;103135;-79
2021/08/20 09:30:07;;;;;;;7.40;5.90;;;;;;;22.50;64.78;100176.45;154071;1100;103246;-78
2021/08/20 09:33:16;;;;;;;6.95;5.30;;;;;;;22.66;64.42;100172.21;154029;1100;103130;-76
2021/08/20 09:36:21;;;;;;;9.00;5.77;;;;;;;22.78;64.26;100170.31;153995;1100;103262;-78
2021/08/20 09:39:27;;;;;;;7.83;5.30;;;;;;;22.91;64.17;100163.83;154056;1101;103198;-78
2021/08/20 09:42:29;;;;;;;5.65;4.80;;;;;;;23.11;63.89;100169.77;154098;1093;103122;-78
2021/08/20 09:45:32;;;;;;;5.90;4.67;;;;;;;23.22;63.76;100170.81;153968;1100;103112;-78
2021/08/20 09:48:51;;;;;;;5.30;4.45;;;;;;;23.38;63.24;100168.41;153978;1100;103134;-77
2021/08/20 09:51:54;;;;;;;5.03;4.47;;;;;;;23.51;61.77;100171.69;153955;1100;103324;-77
2021/08/20 09:54:58;;;;;;;5.10;4.30;;;;;;;23.64;62.92;100170.60;153993;1093;103121;-77
2021/08/20 09:58:02;;;;;;;5.60;4.00;;;;;;;23.82;62.44;100172.34;154057;1100;103195;-77
2021/08/20 10:01:06;;;;;;;6.00;4.47;;;;;;;24.00;62.80;100163.16;154004;1100;103134;-76
2021/08/20 10:04:10;;;;;;;7.08;4.50;;;;;;;24.10;62.65;100162.52;154062;1100;103198;-76
2021/08/20 10:07:18;;;;;;;5.70;4.20;;;;;;;24.15;62.03;100157.14;154017;1100;103281;-76
2021/08/20 10:10:22;;;;;;;4.10;3.70;;;;;;;24.25;62.04;100164.67;154077;1100;103128;-76
2021/08/20 10:13:27;;;;;;;4.18;3.38;;;;;;;24.36;62.16;100160.23;154073;1100;103195;-76
2021/08/20 10:16:33;;;;;;;6.23;3.90;;;;;;;24.51;61.54;100155.06;153980;1100;103198;-77
2021/08/20 10:19:37;;;;;;;4.83;3.70;;;;;;;24.64;61.30;100159.38;154087;1093;103103;-76
2021/08/20 10:22:41;;;;;;;7.80;4.23;;;;;;;24.64;60.79;100159.38;154027;1093;103269;-77
2021/08/20 10:25:44;;;;;;;4.33;3.93;;;;;;;24.63;60.73;100155.80;154085;1100;103206;-77
2021/08/20 10:28:47;;;;;;;4.00;3.60;;;;;;;24.67;60.62;100156.13;154047;1100;103576;-77
2021/08/20 10:31:50;;;;;;;6.70;3.70;;;;;;;24.80;60.57;100153.06;154034;1093;103127;-77
2021/08/20 10:34:53;;;;;;;5.30;4.30;;;;;;;24.81;60.14;100152.00;154008;1100;103145;-78
2021/08/20 10:37:56;;;;;;;4.20;3.73;;;;;;;24.91;59.98;100151.33;153963;1100;103265;-77
2021/08/20 10:41:16;;;;;;;6.05;3.80;;;;;;;24.99;60.09;100153.62;154034;1100;103195;-76
2021/08/20 10:44:21;;;;;;;4.40;3.53;;;;;;;24.93;59.89;100151.08;154064;1098;103131;-77
2021/08/20 10:47:26;;;;;;;5.05;3.83;;;;;;;24.94;59.90;100148.08;153982;1093;104654;-77
2021/08/20 10:50:38;;;;;;;5.00;3.47;;;;;;;24.96;59.86;100151.41;154070;1093;103220;-77
2021/08/20 10:53:48;;;;;;;4.10;3.70;;;;;;;24.91;59.81;100148.59;154015;1100;103490;-78
2021/08/20 10:56:51;;;;;;;4.27;3.53;;;;;;;24.90;59.25;100152.38;154116;1094;103122;-76
2021/08/20 10:59:57;;;;;;;4.07;3.53;;;;;;;24.93;59.07;100146.44;153974;1093;103221;-76
2021/08/20 11:03:02;;;;;;;4.50;3.30;;;;;;;24.92;58.85;100144.77;153977;1093;103199;-76
2021/08/20 11:06:04;;;;;;;5.23;3.80;;;;;;;24.94;59.27;100148.08;154116;1100;103134;-77
2021/08/20 11:09:34;;;;;;;4.00;3.60;;;;;;;24.97;58.95;100146.77;154124;1101;103268;-74
2021/08/20 11:12:37;;;;;;;4.37;3.73;;;;;;;24.92;58.58;100142.04;154034;1101;103198;-76
2021/08/20 11:15:45;;;;;;;6.97;4.10;;;;;;;24.91;58.50;100145.05;154150;1101;103131;-75
2021/08/20 11:18:50;;;;;;;4.28;3.88;;;;;;;25.02;58.57;100149.55;154326;1093;103192;-75
2021/08/20 11:21:53;;;;;;;4.27;3.77;;;;;;;25.14;58.34;100142.09;154622;1093;103116;-77
2021/08/20 11:25:21;;;;;;;4.73;4.07;;;;;;;25.17;58.14;100146.21;154651;1094;103107;-77
2021/08/20 11:28:25;;;;;;;5.98;5.35;;;;;;;25.06;57.63;100140.63;154709;1098;103129;-77
2021/08/20 11:31:28;;;;;;;5.28;4.40;;;;;;;25.03;57.41;100132.92;154607;1098;103125;-76
2021/08/20 11:34:31;;;;;;;5.47;4.53;;;;;;;25.03;57.98;100135.66;154588;1098;103199;-76
2021/08/20 11:37:34;;;;;;;4.60;3.90;;;;;;;25.16;57.70;100139.11;154646;1093;103158;-75
2021/08/20 11:40:53;;;;;;;4.83;3.83;;;;;;;25.25;57.82;100129.41;154667;1093;103197;-76
2021/08/20 11:43:58;;;;;;;4.63;3.70;;;;;;;25.26;57.14;100136.54;154657;1098;103601;-75
2021/08/20 11:47:01;;;;;;;5.97;3.57;;;;;;;25.31;57.26;100136.62;154654;1094;103096;-76
2021/08/20 11:50:09;;;;;;;3.70;3.40;;;;;;;25.43;57.31;100131.84;154612;1093;103129;-76
2021/08/20 11:53:11;;;;;;;4.17;3.30;;;;;;;25.58;56.89;100127.66;154608;1098;103202;-76
2021/08/20 11:56:15;;;;;;;4.30;3.47;;;;;;;25.64;56.83;100130.17;154677;1098;103282;-76
2021/08/20 11:59:19;;;;;;;3.60;3.20;;;;;;;25.63;56.10;100125.78;154731;1098;103267;-76
2021/08/20 12:02:21;;;;;;;3.87;3.30;;;;;;;25.61;56.37;100122.47;154662;1098;103189;-75
2021/08/20 12:05:25;;;;;;;4.53;3.17;;;;;;;25.62;56.29;100115.13;154644;1093;103259;-75
2021/08/20 12:08:28;;;;;;;3.80;2.90;;;;;;;25.66;55.71;100121.72;154670;1098;103598;-76
2021/08/20 12:11:31;;;;;;;4.17;3.40;;;;;;;25.61;55.71;100118.92;154673;1093;103272;-76
2021/08/20 12:14:34;;;;;;;5.13;3.20;;;;;;;25.56;55.63;100110.66;154651;1093;103263;-76
2021/08/20 12:17:37;;;;;;;4.10;3.07;;;;;;;25.63;55.86;100112.11;154616;1098;103176;-76
2021/08/20 12:20:42;;;;;;;4.33;3.37;;;;;;;25.69;55.47;100102.06;154594;1093;103139;-76
2021/08/20 12:24:02;;;;;;;3.83;3.10;;;;;;;25.76;55.18;100110.08;154669;1098;103096;-77
2021/08/20 12:27:16;;;;;;;5.70;2.90;;;;;;;25.87;55.26;100100.91;154667;1098;103579;-77
2021/08/20 12:30:23;;;;;;;3.17;2.83;;;;;;;25.89;55.14;100103.38;154716;1093;103141;-76
2021/08/20 12:33:26;;;;;;;4.10;3.17;;;;;;;25.80;55.01;100094.81;154681;1098;103123;-76
2021/08/20 12:36:29;;;;;;;4.13;2.90;;;;;;;25.61;55.36;100095.16;154604;1093;103147;-77
2021/08/20 12:39:38;;;;;;;3.97;3.10;;;;;;;25.40;55.14;100091.36;154710;1093;103136;-76
2021/08/20 12:42:45;;;;;;;5.17;2.90;;;;;;;25.22;55.00;100092.52;154700;1098;103288;-76
2021/08/20 12:46:05;;;;;;;3.60;3.03;;;;;;;25.04;55.04;100079.17;154692;1098;103215;-75
2021/08/20 12:49:10;;;;;;;3.95;3.30;;;;;;;24.84;55.37;100079.70;154614;1098;103187;-76
2021/08/20 12:52:25;;;;;;;3.27;2.90;;;;;;;24.67;55.46;100088.77;154636;1098;103554;-75
2021/08/20 12:55:33;;;;;;;4.00;3.00;;;;;;;24.54;55.41;100082.81;154689;1094;103211;-76
2021/08/20 12:58:37;;;;;;;3.85;3.43;;;;;;;24.49;55.65;100080.81;154394;1098;103214;-76
2021/08/20 13:01:40;;;;;;;4.67;3.43;;;;;;;24.51;55.43;100067.78;154099;1101;103192;-75
2021/08/20 13:04:43;;;;;;;3.63;3.20;;;;;;;24.52;55.86;100076.78;153988;1094;103230;-75
2021/08/20 13:07:46;;;;;;;4.20;3.30;;;;;;;24.48;55.52;100070.96;154187;1099;103484;-77
2021/08/20 13:10:48;;;;;;;3.57;3.27;;;;;;;24.43;55.24;100068.18;154341;1098;103107;-76
2021/08/20 13:13:51;;;;;;;5.30;3.10;;;;;;;24.41;55.42;100064.88;154427;1098;103249;-76
2021/08/20 13:16:55;;;;;;;4.20;3.50;;;;;;;24.34;54.87;100058.76;154652;1094;103278;-77
2021/08/20 13:19:58;;;;;;;3.30;3.00;;;;;;;24.29;55.13;100063.06;154667;1093;103099;-75
2021/08/20 13:23:01;;;;;;;3.70;3.33;;;;;;;24.27;54.37;100053.48;154585;1093;103131;-75
2021/08/20 13:26:06;;;;;;;3.67;3.20;;;;;;;24.32;54.89;100059.00;154611;1098;103188;-76
2021/08/20 13:29:08;;;;;;;3.45;2.80;;;;;;;24.42;54.77;100048.27;154629;1093;103168;-75
2021/08/20 13:32:11;;;;;;;2.87;2.63;;;;;;;24.47;54.37;100055.69;154630;1098;103477;-75
2021/08/20 13:35:14;;;;;;;3.50;3.20;;;;;;;24.38;54.69;100057.19;154603;1098;103128;-75
2021/08/20 13:38:17;;;;;;;3.20;2.90;;;;;;;24.34;55.23;100056.84;154613;1098;103722;-75
2021/08/20 13:41:19;;;;;;;3.45;3.00;;;;;;;24.36;54.74;100054.70;154581;1093;103145;-75
2021/08/20 13:44:22;;;;;;;3.90;3.50;;;;;;;24.43;54.36;100051.81;154375;1093;103253;-75
2021/08/20 13:47:25;;;;;;;3.53;3.07;;;;;;;24.59;54.92;100052.89;154345;1098;103119;-76
2021/08/20 13:50:28;;;;;;;3.77;2.83;;;;;;;24.75;54.33;100048.47;154358;1098;103210;-76
2021/08/20 13:53:30;;;;;;;4.10;2.90;;;;;;;24.80;54.26;100052.09;154403;1094;103124;-76
2021/08/20 13:56:33;;;;;;;2.90;2.60;;;;;;;24.72;53.17;100054.45;153953;1093;103119;-76
2021/08/20 13:59:36;;;;;;;3.07;2.73;;;;;;;24.67;53.88;100053.30;153979;1101;103193;-76
2021/08/20 14:02:39;;;;;;;3.20;2.60;;;;;;;24.66;52.34;100048.91;154003;1093;103246;-76